Endeavor, Pennsylvania
Current Conditions -  °F | °C
As of 1:55 PM on Tuesday 27 Jan 2015 (Local Time) from KFKL Reporting Station
Overcast Overcast  
Wind Chill: 10°   Ceiling: 1900
Heat Index: 19°   Visibility: 10mi
Dew Point: 10°   Wind: 7mph
Humidity: 68%   Direction: 330°NNW
Pressure: 29.93"   Gusts: NA
Location:  41.59°N, 79.39°W
Report Text: KFKL 271855Z AUTO 33006KT 290V350 10SM OVC019 M07/M12 A2993 RMK AO1
Loading
Personal Weather Stations






























Interactive Weather Map New forecast layout! Learn more

10-Day Weather Forecast

Advertisements
Track Severe Weather on mobile